createdAt,value
2017-07-30T00:00:17.001Z,987
2017-07-30T00:01:24.482Z,988
2017-07-30T00:02:31.988Z,987
2017-07-30T00:03:39.468Z,987
2017-07-30T00:04:46.916Z,987
2017-07-30T00:05:54.404Z,987
2017-07-30T00:07:01.885Z,987
2017-07-30T00:08:09.384Z,986
2017-07-30T00:09:16.888Z,986
2017-07-30T00:10:24.677Z,986
2017-07-30T00:11:32.165Z,986
2017-07-30T00:12:39.324Z,986
2017-07-30T00:13:46.144Z,986
2017-07-30T00:14:53.317Z,985
2017-07-30T00:16:01.100Z,987
2017-07-30T00:17:08.575Z,987
2017-07-30T00:18:16.049Z,987
2017-07-30T00:19:23.214Z,987
2017-07-30T00:20:30.698Z,987
2017-07-30T00:21:38.496Z,987
2017-07-30T00:22:45.991Z,987
2017-07-30T00:23:53.470Z,987
2017-07-30T00:25:00.945Z,987
2017-07-30T00:26:08.428Z,986
2017-07-30T00:27:16.208Z,986
2017-07-30T00:28:23.364Z,987
2017-07-30T00:29:30.848Z,987
2017-07-30T00:30:38.323Z,986
2017-07-30T00:31:45.818Z,986
2017-07-30T00:32:53.595Z,985
2017-07-30T00:34:00.743Z,985
2017-07-30T00:35:08.225Z,985
2017-07-30T00:36:15.712Z,985
2017-07-30T00:37:23.195Z,985
2017-07-30T00:38:30.982Z,986
2017-07-30T00:39:38.463Z,985
2017-07-30T00:40:45.946Z,985
2017-07-30T00:41:53.426Z,985
2017-07-30T00:43:00.901Z,985
2017-07-30T00:44:08.352Z,985
2017-07-30T00:45:15.839Z,985
2017-07-30T00:46:23.312Z,985
2017-07-30T00:47:30.794Z,985
2017-07-30T00:48:38.266Z,986
2017-07-30T00:49:46.042Z,985
2017-07-30T00:50:53.524Z,985
2017-07-30T00:52:01.003Z,985
2017-07-30T00:53:08.500Z,985
2017-07-30T00:54:15.981Z,985
2017-07-30T00:55:23.763Z,985
2017-07-30T00:56:31.242Z,985
2017-07-30T00:57:38.727Z,984
2017-07-30T00:58:45.882Z,984
2017-07-30T00:59:53.372Z,983
2017-07-30T01:01:00.522Z,984
2017-07-30T01:02:08.001Z,984
2017-07-30T01:03:15.486Z,984
2017-07-30T01:04:22.962Z,983
2017-07-30T01:05:30.441Z,984
2017-07-30T01:06:38.219Z,983
2017-07-30T01:07:45.375Z,983
2017-07-30T01:08:52.858Z,983
2017-07-30T01:10:00.338Z,983
2017-07-30T01:11:07.822Z,983
2017-07-30T01:12:15.613Z,983
2017-07-30T01:13:23.084Z,982
2017-07-30T01:14:30.560Z,982
2017-07-30T01:15:37.708Z,983
2017-07-30T01:16:44.890Z,983
2017-07-30T01:17:52.352Z,982
2017-07-30T01:18:59.846Z,983
2017-07-30T01:20:07.327Z,982
2017-07-30T01:21:14.808Z,983
2017-07-30T01:22:22.289Z,983
2017-07-30T01:23:30.067Z,983
2017-07-30T01:24:37.206Z,983
2017-07-30T01:25:44.687Z,983
2017-07-30T01:26:51.844Z,984
2017-07-30T01:27:59.326Z,984
2017-07-30T01:29:07.124Z,984
2017-07-30T01:30:14.604Z,984
2017-07-30T01:31:22.086Z,984
2017-07-30T01:32:29.243Z,984
2017-07-30T01:33:36.728Z,983
2017-07-30T01:34:44.509Z,983
2017-07-30T01:35:51.989Z,983
2017-07-30T01:36:59.469Z,983
2017-07-30T01:38:06.962Z,983
2017-07-30T01:39:14.116Z,982
2017-07-30T01:40:21.894Z,983
2017-07-30T01:41:29.368Z,983
2017-07-30T01:42:36.852Z,983
2017-07-30T01:43:43.675Z,983
2017-07-30T01:44:51.150Z,983
2017-07-30T01:45:58.938Z,982
2017-07-30T01:47:06.418Z,982
2017-07-30T01:48:13.569Z,982
2017-07-30T01:49:21.048Z,982
2017-07-30T01:50:28.527Z,983
2017-07-30T01:51:36.309Z,982
2017-07-30T01:52:43.788Z,982
2017-07-30T01:53:51.271Z,982
2017-07-30T01:54:58.750Z,982
2017-07-30T01:56:06.232Z,982
2017-07-30T01:57:14.010Z,982
2017-07-30T01:58:21.493Z,982
2017-07-30T01:59:28.985Z,983
2017-07-30T02:00:36.466Z,983
2017-07-30T02:01:43.940Z,983
2017-07-30T02:02:51.393Z,983
2017-07-30T02:03:58.866Z,983
2017-07-30T02:05:06.354Z,982
2017-07-30T02:06:13.499Z,983
2017-07-30T02:07:20.650Z,982
2017-07-30T02:08:28.431Z,981
2017-07-30T02:09:35.904Z,982
2017-07-30T02:10:43.385Z,981
2017-07-30T02:11:50.865Z,982
2017-07-30T02:12:58.348Z,981
2017-07-30T02:14:06.121Z,981
2017-07-30T02:15:13.279Z,982
2017-07-30T02:16:20.782Z,982
2017-07-30T02:17:28.260Z,982
2017-07-30T02:18:35.740Z,982
2017-07-30T02:19:43.521Z,981
2017-07-30T02:20:51.002Z,982
2017-07-30T02:21:58.481Z,982
2017-07-30T02:23:05.952Z,982
2017-07-30T02:24:13.438Z,981
2017-07-30T02:25:21.220Z,982
2017-07-30T02:26:28.742Z,982
2017-07-30T02:27:36.231Z,981
2017-07-30T02:28:43.709Z,982
2017-07-30T02:29:50.871Z,981
2017-07-30T02:30:58.321Z,982
2017-07-30T02:32:05.803Z,982
2017-07-30T02:33:14.237Z,981
2017-07-30T02:34:21.716Z,981
2017-07-30T02:35:28.867Z,981
2017-07-30T02:36:36.657Z,982
2017-07-30T02:37:44.150Z,982
2017-07-30T02:38:51.633Z,981
2017-07-30T02:39:59.112Z,981
2017-07-30T02:41:06.592Z,981
2017-07-30T02:42:14.376Z,981
2017-07-30T02:43:21.859Z,981
2017-07-30T02:44:29.338Z,980
2017-07-30T02:45:36.483Z,980
2017-07-30T02:46:43.598Z,980
2017-07-30T02:47:50.710Z,979
2017-07-30T02:48:58.190Z,979
2017-07-30T02:50:05.678Z,980
2017-07-30T02:51:13.151Z,979
2017-07-30T02:52:20.304Z,980
2017-07-30T02:53:28.083Z,980
2017-07-30T02:54:35.583Z,980
2017-07-30T02:55:43.059Z,979
2017-07-30T02:56:50.543Z,980
2017-07-30T02:57:58.025Z,980
2017-07-30T02:59:05.801Z,980
2017-07-30T03:00:13.284Z,980
2017-07-30T03:01:20.766Z,980
2017-07-30T03:02:28.241Z,980
2017-07-30T03:03:35.722Z,979
2017-07-30T03:04:43.508Z,980
2017-07-30T03:05:50.989Z,979
2017-07-30T03:06:58.485Z,980
2017-07-30T03:08:05.964Z,981
2017-07-30T03:09:13.132Z,979
2017-07-30T03:10:20.913Z,980
2017-07-30T03:11:28.394Z,979
2017-07-30T03:12:35.871Z,980
2017-07-30T03:13:43.348Z,980
2017-07-30T03:14:50.833Z,980
2017-07-30T03:15:58.619Z,980
2017-07-30T03:17:06.104Z,979
2017-07-30T03:18:13.581Z,979
2017-07-30T03:19:20.407Z,978
2017-07-30T03:20:27.894Z,979
2017-07-30T03:21:35.744Z,980
2017-07-30T03:22:43.220Z,978
2017-07-30T03:23:50.720Z,979
2017-07-30T03:24:58.198Z,978
2017-07-30T03:26:05.347Z,979
2017-07-30T03:27:13.125Z,979
2017-07-30T03:28:20.635Z,979
2017-07-30T03:29:28.119Z,978
2017-07-30T03:30:35.596Z,979
2017-07-30T03:31:43.076Z,979
2017-07-30T03:32:50.856Z,978
2017-07-30T03:33:58.336Z,978
2017-07-30T03:35:05.813Z,978
2017-07-30T03:37:35.415Z,978
2017-07-30T03:38:42.863Z,978
2017-07-30T03:39:50.343Z,978
2017-07-30T03:40:57.486Z,978
2017-07-30T03:42:04.967Z,977
2017-07-30T03:43:12.443Z,978
2017-07-30T03:44:20.227Z,978
2017-07-30T03:45:27.704Z,978
2017-07-30T03:46:34.882Z,978
2017-07-30T03:47:42.042Z,978
2017-07-30T03:48:49.523Z,977
2017-07-30T03:49:57.003Z,977
2017-07-30T03:51:04.155Z,977
2017-07-30T03:52:11.305Z,977
2017-07-30T03:53:18.785Z,977
2017-07-30T03:54:26.563Z,977
2017-07-30T03:55:33.721Z,977
2017-07-30T03:56:41.208Z,978
2017-07-30T03:57:48.686Z,979
2017-07-30T03:58:56.168Z,979
2017-07-30T04:00:03.615Z,980
2017-07-30T04:01:10.439Z,979
2017-07-30T04:02:17.921Z,979
2017-07-30T04:03:25.075Z,980
2017-07-30T04:04:32.555Z,980
2017-07-30T04:05:40.007Z,979
2017-07-30T04:06:47.157Z,980
2017-07-30T04:07:54.635Z,979
2017-07-30T04:09:01.782Z,979
2017-07-30T04:10:08.945Z,980
2017-07-30T04:11:16.726Z,979
2017-07-30T04:12:23.899Z,980
2017-07-30T04:13:31.041Z,981
2017-07-30T04:14:38.529Z,980
2017-07-30T04:15:46.005Z,981
2017-07-30T04:16:53.486Z,980
2017-07-30T04:18:00.970Z,980
2017-07-30T04:19:08.446Z,980
2017-07-30T04:20:15.930Z,980
2017-07-30T04:21:23.408Z,981
2017-07-30T04:22:30.865Z,981
2017-07-30T04:23:38.336Z,981
2017-07-30T04:24:45.817Z,980
2017-07-30T04:25:52.967Z,981
2017-07-30T04:27:00.458Z,980
2017-07-30T04:28:08.252Z,980
2017-07-30T04:29:15.728Z,980
2017-07-30T04:30:23.209Z,980
2017-07-30T04:31:30.685Z,980
2017-07-30T04:32:38.161Z,980
2017-07-30T04:33:45.638Z,980
2017-07-30T04:34:52.792Z,980
2017-07-30T04:36:00.266Z,979
2017-07-30T04:37:07.418Z,980
2017-07-30T04:38:14.897Z,980
2017-07-30T04:39:22.346Z,980
2017-07-30T04:40:29.827Z,980
2017-07-30T04:41:37.300Z,980
2017-07-30T04:42:44.780Z,980
2017-07-30T04:43:52.259Z,980
2017-07-30T04:45:00.037Z,980
2017-07-30T04:46:07.519Z,981
2017-07-30T04:47:14.996Z,980
2017-07-30T04:48:22.491Z,980
2017-07-30T04:49:29.644Z,981
2017-07-30T04:50:37.435Z,981
2017-07-30T04:51:44.919Z,981
2017-07-30T04:52:52.408Z,980
2017-07-30T04:53:59.886Z,980
2017-07-30T04:55:07.365Z,982
2017-07-30T04:56:14.847Z,981
2017-07-30T04:57:22.329Z,981
2017-07-30T04:58:29.808Z,980
2017-07-30T04:59:37.287Z,981
2017-07-30T05:00:44.771Z,981
2017-07-30T05:01:52.552Z,981
2017-07-30T05:02:59.700Z,981
2017-07-30T05:04:06.860Z,981
2017-07-30T05:05:14.341Z,981
2017-07-30T05:06:21.819Z,981
2017-07-30T05:07:35.568Z,981
2017-07-30T05:08:42.399Z,981
2017-07-30T05:09:49.573Z,982
2017-07-30T05:10:57.059Z,982
2017-07-30T05:12:04.548Z,981
2017-07-30T05:13:11.694Z,981
2017-07-30T05:14:19.172Z,981
2017-07-30T05:15:26.333Z,980
2017-07-30T05:16:33.811Z,981
2017-07-30T05:17:40.974Z,980
2017-07-30T05:18:48.754Z,979
2017-07-30T05:19:56.244Z,979
2017-07-30T05:21:03.409Z,980
2017-07-30T05:22:10.889Z,981
2017-07-30T05:23:18.371Z,980
2017-07-30T05:24:26.157Z,979
2017-07-30T05:25:33.632Z,980
2017-07-30T05:26:41.120Z,979
2017-07-30T05:27:48.601Z,980
2017-07-30T05:28:56.084Z,980
2017-07-30T05:30:03.887Z,980
2017-07-30T05:31:11.372Z,980
2017-07-30T05:32:18.528Z,980
2017-07-30T05:33:26.038Z,980
2017-07-30T05:34:33.736Z,980
2017-07-30T05:35:41.219Z,980
2017-07-30T05:36:48.701Z,981
2017-07-30T05:37:56.182Z,981
2017-07-30T05:39:03.666Z,980
2017-07-30T05:40:11.146Z,981
2017-07-30T05:41:18.946Z,980
2017-07-30T05:42:26.448Z,979
2017-07-30T05:43:34.880Z,980
2017-07-30T05:44:42.365Z,980
2017-07-30T05:45:49.864Z,980
2017-07-30T05:46:57.646Z,980
2017-07-30T05:48:05.143Z,980
2017-07-30T05:49:12.621Z,980
2017-07-30T05:50:19.791Z,980
2017-07-30T05:51:27.273Z,980
2017-07-30T05:52:34.430Z,980
2017-07-30T05:53:41.917Z,980
2017-07-30T05:54:49.399Z,980
2017-07-30T05:55:56.558Z,980
2017-07-30T05:57:04.042Z,980
2017-07-30T05:58:11.823Z,980
2017-07-30T05:59:19.306Z,980
2017-07-30T06:00:26.789Z,980
2017-07-30T06:01:34.280Z,980
2017-07-30T06:02:41.766Z,980
2017-07-30T06:03:48.890Z,980
2017-07-30T06:04:56.389Z,980
2017-07-30T06:06:03.872Z,980
2017-07-30T06:07:11.019Z,980
2017-07-30T06:08:18.497Z,980
2017-07-30T06:09:26.282Z,980
2017-07-30T06:10:33.775Z,980
2017-07-30T06:11:41.256Z,980
2017-07-30T06:12:48.421Z,980
2017-07-30T06:13:55.901Z,980
2017-07-30T06:15:03.397Z,980
2017-07-30T06:16:10.867Z,980
2017-07-30T06:17:18.350Z,980
2017-07-30T06:18:25.502Z,980
2017-07-30T06:19:32.997Z,980
2017-07-30T06:20:40.777Z,980
2017-07-30T06:21:48.264Z,981
2017-07-30T06:22:55.423Z,980
2017-07-30T06:24:02.910Z,981
2017-07-30T06:25:10.403Z,981
2017-07-30T06:26:18.182Z,981
2017-07-30T06:27:25.660Z,981
2017-07-30T06:28:33.152Z,980
2017-07-30T06:29:40.629Z,981
2017-07-30T06:30:48.107Z,981
2017-07-30T06:31:55.892Z,981
2017-07-30T06:33:03.371Z,981
2017-07-30T06:34:10.856Z,980
2017-07-30T06:35:18.010Z,980
2017-07-30T06:36:25.509Z,981
2017-07-30T06:37:32.959Z,981
2017-07-30T06:38:40.449Z,980
2017-07-30T06:39:47.929Z,980
2017-07-30T06:40:55.412Z,981
2017-07-30T06:42:02.889Z,980
2017-07-30T06:43:10.682Z,980
2017-07-30T06:44:18.165Z,981
2017-07-30T06:45:25.333Z,981
2017-07-30T06:46:32.825Z,981
2017-07-30T06:47:40.306Z,981
2017-07-30T06:48:48.097Z,981
2017-07-30T06:49:55.250Z,981
2017-07-30T06:51:02.401Z,981
2017-07-30T06:52:09.886Z,981
2017-07-30T06:53:17.373Z,982
2017-07-30T06:54:24.859Z,981
2017-07-30T06:55:32.346Z,981
2017-07-30T06:56:39.830Z,981
2017-07-30T06:57:47.316Z,981
2017-07-30T06:58:54.828Z,981
2017-07-30T07:00:02.613Z,981
2017-07-30T07:01:10.098Z,981
2017-07-30T07:02:17.584Z,981
2017-07-30T07:03:25.069Z,981
2017-07-30T07:04:32.550Z,981
2017-07-30T07:05:40.007Z,981
2017-07-30T07:06:47.490Z,981
2017-07-30T07:07:54.972Z,981
2017-07-30T07:09:02.456Z,981
2017-07-30T07:10:09.941Z,981
2017-07-30T07:11:17.732Z,981
2017-07-30T07:12:25.218Z,980
2017-07-30T07:13:32.693Z,981
2017-07-30T07:14:40.177Z,981
2017-07-30T07:15:47.666Z,981
2017-07-30T07:16:55.148Z,981
2017-07-30T07:18:02.631Z,980
2017-07-30T07:19:10.131Z,981
2017-07-30T07:20:17.616Z,981
2017-07-30T07:21:25.403Z,981
2017-07-30T07:22:32.890Z,981
2017-07-30T07:23:40.374Z,981
2017-07-30T07:24:47.573Z,981
2017-07-30T07:25:55.063Z,980
2017-07-30T07:27:02.893Z,981
2017-07-30T07:28:10.378Z,981
2017-07-30T07:29:17.878Z,981
2017-07-30T07:30:25.366Z,980
2017-07-30T07:31:32.858Z,981
2017-07-30T07:32:40.642Z,981
2017-07-30T07:33:48.133Z,981
2017-07-30T07:34:55.645Z,981
2017-07-30T07:36:02.803Z,981
2017-07-30T07:37:10.293Z,981
2017-07-30T07:38:18.079Z,981
2017-07-30T07:39:25.564Z,981
2017-07-30T07:40:33.051Z,981
2017-07-30T07:41:40.212Z,981
2017-07-30T07:42:47.702Z,981
2017-07-30T07:43:55.189Z,981
2017-07-30T07:45:02.683Z,981
2017-07-30T07:46:10.186Z,980
2017-07-30T07:47:17.669Z,980
2017-07-30T07:48:25.456Z,981
2017-07-30T07:49:32.950Z,981
2017-07-30T07:50:40.438Z,980
2017-07-30T07:51:47.926Z,981
2017-07-30T07:52:55.100Z,981
2017-07-30T07:54:02.888Z,980
2017-07-30T07:55:10.376Z,981
2017-07-30T07:56:17.856Z,980
2017-07-30T07:57:25.014Z,980
2017-07-30T07:58:32.505Z,980
2017-07-30T07:59:40.300Z,981
2017-07-30T08:00:47.801Z,980
2017-07-30T08:01:54.953Z,981
2017-07-30T08:03:02.465Z,981
2017-07-30T08:04:09.957Z,981
2017-07-30T08:05:17.741Z,981
2017-07-30T08:06:24.899Z,981
2017-07-30T08:07:32.385Z,981
2017-07-30T08:08:39.872Z,982
2017-07-30T08:09:47.356Z,982
2017-07-30T08:10:54.842Z,981
2017-07-30T08:12:02.332Z,981
2017-07-30T08:13:09.815Z,981
2017-07-30T08:14:17.303Z,981
2017-07-30T08:15:24.806Z,981
2017-07-30T08:16:32.592Z,981
2017-07-30T08:17:40.078Z,981
2017-07-30T08:18:47.572Z,981
2017-07-30T08:19:55.062Z,982
2017-07-30T08:21:02.550Z,981
2017-07-30T08:22:10.341Z,982
2017-07-30T08:23:17.834Z,981
2017-07-30T08:24:25.322Z,981
2017-07-30T08:25:32.808Z,981
2017-07-30T08:26:39.965Z,981
2017-07-30T08:27:47.127Z,981
2017-07-30T08:28:54.614Z,981
2017-07-30T08:30:02.103Z,981
2017-07-30T08:31:09.587Z,981
2017-07-30T08:32:16.740Z,981
2017-07-30T08:33:24.532Z,981
2017-07-30T08:34:32.016Z,982
2017-07-30T08:35:39.506Z,981
2017-07-30T08:36:46.995Z,980
2017-07-30T08:37:54.112Z,981
2017-07-30T08:39:01.907Z,981
2017-07-30T08:40:08.995Z,981
2017-07-30T08:41:16.496Z,981
2017-07-30T08:42:23.984Z,981
2017-07-30T08:43:31.482Z,981
2017-07-30T08:44:39.268Z,980
2017-07-30T08:45:46.754Z,981
2017-07-30T08:46:54.239Z,981
2017-07-30T08:48:01.759Z,981
2017-07-30T08:49:09.249Z,981
2017-07-30T08:50:16.738Z,981
2017-07-30T08:51:24.236Z,981
2017-07-30T08:52:31.720Z,981
2017-07-30T08:53:39.223Z,980
2017-07-30T08:54:46.724Z,980
2017-07-30T08:55:54.179Z,980
2017-07-30T08:57:01.343Z,980
2017-07-30T08:58:08.834Z,980
2017-07-30T08:59:16.329Z,980
2017-07-30T09:00:23.811Z,980
2017-07-30T09:01:31.280Z,980
2017-07-30T09:02:38.768Z,980
2017-07-30T09:03:46.261Z,980
2017-07-30T09:04:53.744Z,980
2017-07-30T09:06:00.908Z,979
2017-07-30T09:07:08.390Z,980
2017-07-30T09:08:15.882Z,980
2017-07-30T09:09:23.369Z,980
2017-07-30T09:10:30.874Z,980
2017-07-30T09:11:38.356Z,979
2017-07-30T09:12:46.154Z,979
2017-07-30T09:13:53.312Z,979
2017-07-30T09:15:00.801Z,979
2017-07-30T09:16:08.287Z,979
2017-07-30T09:17:15.776Z,979
2017-07-30T09:18:23.560Z,979
2017-07-30T09:19:31.063Z,979
2017-07-30T09:20:38.559Z,979
2017-07-30T09:21:45.714Z,979
2017-07-30T09:22:52.888Z,979
2017-07-30T09:24:00.673Z,979
2017-07-30T09:25:07.826Z,978
2017-07-30T09:26:15.316Z,979
2017-07-30T09:27:22.817Z,978
2017-07-30T09:28:30.308Z,978
2017-07-30T09:29:37.813Z,978
2017-07-30T09:30:44.979Z,978
2017-07-30T09:31:52.468Z,978
2017-07-30T09:32:59.963Z,978
2017-07-30T09:34:07.453Z,978
2017-07-30T09:35:15.247Z,978
2017-07-30T09:36:22.736Z,978
2017-07-30T09:37:29.902Z,978
2017-07-30T09:38:36.732Z,978
2017-07-30T09:39:43.892Z,978
2017-07-30T09:40:51.683Z,978
2017-07-30T09:41:59.173Z,979
2017-07-30T09:43:06.661Z,978
2017-07-30T09:44:14.154Z,978
2017-07-30T09:45:21.638Z,978
2017-07-30T09:46:29.108Z,978
2017-07-30T09:47:36.602Z,978
2017-07-30T09:48:44.111Z,978
2017-07-30T09:49:51.593Z,978
2017-07-30T09:50:59.103Z,978
2017-07-30T09:52:06.592Z,977
2017-07-30T09:53:14.088Z,978
2017-07-30T09:54:21.573Z,978
2017-07-30T09:55:29.061Z,977
2017-07-30T09:56:36.852Z,977
2017-07-30T09:57:44.340Z,977
2017-07-30T09:58:51.870Z,977
2017-07-30T09:59:59.359Z,977
2017-07-30T10:01:06.856Z,977
2017-07-30T10:02:14.646Z,977
2017-07-30T10:03:22.144Z,977
2017-07-30T10:04:29.305Z,977
2017-07-30T10:05:36.792Z,976
2017-07-30T10:06:44.284Z,976
2017-07-30T10:07:52.128Z,976
2017-07-30T10:08:59.631Z,975
2017-07-30T10:10:07.142Z,975
2017-07-30T10:11:13.955Z,975
2017-07-30T10:12:21.100Z,975
2017-07-30T10:13:28.986Z,975
2017-07-30T10:14:36.144Z,975
2017-07-30T10:15:43.638Z,975
2017-07-30T10:16:51.116Z,975
2017-07-30T10:17:58.608Z,975
2017-07-30T10:19:06.088Z,974
2017-07-30T10:20:13.278Z,974
2017-07-30T10:21:21.063Z,975
2017-07-30T10:22:28.566Z,975
2017-07-30T10:23:36.062Z,974
2017-07-30T10:24:43.564Z,974
2017-07-30T10:25:51.070Z,974
2017-07-30T10:26:58.877Z,974
2017-07-30T10:28:20.969Z,973
2017-07-30T10:29:27.810Z,974
2017-07-30T10:30:34.975Z,973
2017-07-30T10:31:42.154Z,973
2017-07-30T10:32:49.949Z,973
2017-07-30T10:33:57.094Z,972
2017-07-30T10:35:04.257Z,972
2017-07-30T10:36:11.748Z,973
2017-07-30T10:37:18.913Z,974
2017-07-30T10:38:26.070Z,975
2017-07-30T10:39:33.223Z,974
2017-07-30T10:40:40.096Z,974
2017-07-30T10:41:47.614Z,976
2017-07-30T10:42:55.105Z,977
2017-07-30T10:44:02.676Z,976
2017-07-30T10:45:10.168Z,975
2017-07-30T10:46:17.334Z,974
2017-07-30T10:47:24.819Z,973
2017-07-30T10:48:32.305Z,973
2017-07-30T10:49:39.809Z,972
2017-07-30T10:50:46.953Z,972
2017-07-30T10:51:53.790Z,973
2017-07-30T10:53:00.937Z,972
2017-07-30T10:54:08.414Z,972
2017-07-30T10:55:15.580Z,973
2017-07-30T10:56:23.072Z,972
2017-07-30T10:57:30.222Z,973
2017-07-30T10:58:37.374Z,972
2017-07-30T10:59:44.532Z,973
2017-07-30T11:00:52.311Z,973
2017-07-30T11:01:59.461Z,972
2017-07-30T11:03:06.299Z,971
2017-07-30T11:04:13.458Z,972
2017-07-30T11:05:20.946Z,972
2017-07-30T11:06:28.451Z,972
2017-07-30T11:07:35.604Z,973
2017-07-30T11:08:42.417Z,972
2017-07-30T11:09:49.911Z,972
2017-07-30T11:10:57.397Z,973
2017-07-30T11:12:05.254Z,972
2017-07-30T11:13:12.745Z,972
2017-07-30T11:14:20.230Z,972
2017-07-30T11:15:27.441Z,972
2017-07-30T11:16:34.924Z,971
2017-07-30T11:17:42.759Z,971
2017-07-30T11:18:49.917Z,971
2017-07-30T11:19:57.433Z,971
2017-07-30T11:21:04.928Z,971
2017-07-30T11:22:12.435Z,970
2017-07-30T11:23:20.227Z,971
2017-07-30T11:24:27.733Z,971
2017-07-30T11:25:35.227Z,971
2017-07-30T11:26:42.721Z,972
2017-07-30T11:27:50.211Z,972
2017-07-30T11:28:58.050Z,973
2017-07-30T11:30:05.542Z,973
2017-07-30T11:31:13.038Z,973
2017-07-30T11:32:20.525Z,970
2017-07-30T11:33:28.016Z,970
2017-07-30T11:34:35.855Z,972
2017-07-30T11:35:43.366Z,974
2017-07-30T11:36:50.859Z,975
2017-07-30T11:37:58.358Z,973
2017-07-30T11:39:05.537Z,972
2017-07-30T11:40:13.333Z,974
2017-07-30T11:41:20.820Z,974
2017-07-30T11:42:28.516Z,974
2017-07-30T11:43:36.028Z,974
2017-07-30T11:44:43.525Z,974
2017-07-30T11:45:51.371Z,972
2017-07-30T11:46:58.863Z,972
2017-07-30T11:48:06.356Z,971
2017-07-30T11:49:13.853Z,971
2017-07-30T11:50:21.019Z,972
2017-07-30T11:51:28.874Z,972
2017-07-30T11:52:36.378Z,976
2017-07-30T11:53:43.545Z,974
2017-07-30T11:54:51.050Z,974
2017-07-30T11:55:58.544Z,973
2017-07-30T11:57:06.388Z,972
2017-07-30T11:58:13.878Z,972
2017-07-30T11:59:21.375Z,971
2017-07-30T12:00:28.873Z,969
2017-07-30T12:01:36.364Z,969
2017-07-30T12:02:44.153Z,970
2017-07-30T12:03:51.647Z,970
2017-07-30T12:04:59.156Z,971
2017-07-30T12:06:06.645Z,972
2017-07-30T12:07:14.139Z,972
2017-07-30T12:08:21.629Z,971
2017-07-30T12:09:28.795Z,970
2017-07-30T12:10:36.293Z,972
2017-07-30T12:11:43.782Z,975
2017-07-30T12:12:51.275Z,976
2017-07-30T12:13:59.118Z,974
2017-07-30T12:15:06.612Z,971
2017-07-30T12:16:13.852Z,969
2017-07-30T12:17:21.013Z,970
2017-07-30T12:18:28.513Z,969
2017-07-30T12:19:36.364Z,972
2017-07-30T12:20:43.526Z,975
2017-07-30T12:21:50.728Z,976
2017-07-30T12:22:57.893Z,976
2017-07-30T12:24:05.056Z,976
2017-07-30T12:25:12.902Z,975
2017-07-30T12:26:20.398Z,973
2017-07-30T12:27:27.884Z,974
2017-07-30T12:28:34.713Z,975
2017-07-30T12:29:42.219Z,974
2017-07-30T12:30:49.689Z,972
2017-07-30T12:31:57.180Z,971
2017-07-30T12:33:04.676Z,972
2017-07-30T12:34:11.844Z,974
2017-07-30T12:35:19.340Z,973
2017-07-30T12:36:27.135Z,975
2017-07-30T12:37:34.629Z,976
2017-07-30T12:38:56.725Z,976
2017-07-30T12:40:04.237Z,975
2017-07-30T12:41:11.405Z,975
2017-07-30T12:42:19.190Z,974
2017-07-30T12:43:26.687Z,973
2017-07-30T12:44:34.186Z,970
2017-07-30T12:45:41.341Z,970
2017-07-30T12:46:48.841Z,970
2017-07-30T12:47:56.629Z,970
2017-07-30T12:49:04.138Z,970
2017-07-30T12:50:11.637Z,970
2017-07-30T12:51:19.125Z,971
2017-07-30T12:52:26.623Z,970
2017-07-30T12:53:34.091Z,970
2017-07-30T12:54:41.587Z,970
2017-07-30T12:55:49.072Z,972
2017-07-30T12:56:57.017Z,971
2017-07-30T12:58:03.513Z,971
2017-07-30T12:59:11.353Z,969
2017-07-30T13:00:18.840Z,968
2017-07-30T13:01:26.334Z,969
2017-07-30T13:02:33.827Z,974
2017-07-30T13:03:41.555Z,974
2017-07-30T13:04:49.353Z,974
2017-07-30T13:05:56.852Z,974
2017-07-30T13:07:04.351Z,971
2017-07-30T13:08:11.841Z,970
2017-07-30T13:09:19.329Z,973
2017-07-30T13:10:26.842Z,973
2017-07-30T13:11:34.331Z,972
2017-07-30T13:12:41.981Z,973
2017-07-30T13:13:49.467Z,972
2017-07-30T13:14:56.979Z,973
2017-07-30T13:16:04.832Z,973
2017-07-30T13:17:12.325Z,975
2017-07-30T13:18:19.825Z,975
2017-07-30T13:19:27.315Z,976
2017-07-30T13:20:34.819Z,976
2017-07-30T13:21:42.625Z,976
2017-07-30T13:22:50.128Z,976
2017-07-30T13:23:57.291Z,976
2017-07-30T13:25:04.782Z,976
2017-07-30T13:26:12.273Z,977
2017-07-30T13:27:19.785Z,977
2017-07-30T13:28:27.283Z,977
2017-07-30T13:29:34.776Z,977
2017-07-30T13:30:42.272Z,977
2017-07-30T13:31:49.771Z,977
2017-07-30T13:32:57.562Z,977
2017-07-30T13:34:05.059Z,977
2017-07-30T13:35:12.229Z,976
2017-07-30T13:36:19.741Z,977
2017-07-30T13:37:27.235Z,976
2017-07-30T13:38:34.730Z,976
2017-07-30T13:39:42.220Z,976
2017-07-30T13:40:49.713Z,976
2017-07-30T13:41:57.512Z,973
2017-07-30T13:43:05.008Z,973
2017-07-30T13:44:12.498Z,971
2017-07-30T13:45:19.990Z,971
2017-07-30T13:46:27.476Z,971
2017-07-30T13:47:35.271Z,972
2017-07-30T13:48:42.764Z,971
2017-07-30T13:49:50.258Z,969
2017-07-30T13:50:57.750Z,969
2017-07-30T13:52:05.237Z,967
2017-07-30T13:53:12.732Z,969
2017-07-30T13:54:20.258Z,970
2017-07-30T13:55:27.422Z,972
2017-07-30T13:56:34.908Z,974
2017-07-30T13:57:42.396Z,973
2017-07-30T13:58:50.187Z,971
2017-07-30T13:59:57.675Z,972
2017-07-30T14:01:05.175Z,974
2017-07-30T14:02:12.665Z,975
2017-07-30T14:03:20.161Z,976
2017-07-30T14:04:28.002Z,977
2017-07-30T14:05:35.493Z,977
2017-07-30T14:06:42.986Z,977
2017-07-30T14:07:50.477Z,977
2017-07-30T14:08:57.967Z,977
2017-07-30T14:10:05.811Z,978
2017-07-30T14:11:13.301Z,977
2017-07-30T14:12:20.474Z,977
2017-07-30T14:13:27.645Z,977
2017-07-30T14:14:35.134Z,977
2017-07-30T14:15:42.925Z,977
2017-07-30T14:16:50.413Z,977
2017-07-30T14:17:57.907Z,977
2017-07-30T14:19:05.389Z,976
2017-07-30T14:20:12.895Z,977
2017-07-30T14:21:20.685Z,977
2017-07-30T14:22:28.173Z,977
2017-07-30T14:23:35.336Z,977
2017-07-30T14:24:42.833Z,977
2017-07-30T14:25:50.324Z,976
2017-07-30T14:26:58.162Z,977
2017-07-30T14:28:05.654Z,976
2017-07-30T14:29:12.820Z,977
2017-07-30T14:30:20.322Z,976
2017-07-30T14:31:27.487Z,976
2017-07-30T14:32:35.325Z,977
2017-07-30T14:33:42.837Z,977
2017-07-30T14:34:50.334Z,977
2017-07-30T14:35:57.822Z,976
2017-07-30T14:37:05.311Z,976
2017-07-30T14:38:12.825Z,976
2017-07-30T14:39:20.311Z,977
2017-07-30T14:40:27.500Z,976
2017-07-30T14:41:34.991Z,977
2017-07-30T14:42:42.145Z,977
2017-07-30T14:43:50.014Z,976
2017-07-30T14:44:57.497Z,976
2017-07-30T14:46:04.660Z,976
2017-07-30T14:47:12.161Z,976
2017-07-30T14:48:19.642Z,976
2017-07-30T14:49:27.428Z,976
2017-07-30T14:50:34.929Z,976
2017-07-30T14:51:42.092Z,976
2017-07-30T14:52:49.244Z,977
2017-07-30T14:53:56.734Z,976
2017-07-30T14:55:04.527Z,976
2017-07-30T14:56:12.031Z,976
2017-07-30T14:57:19.518Z,976
2017-07-30T14:58:27.010Z,977
2017-07-30T14:59:34.500Z,975
2017-07-30T15:00:42.292Z,976
2017-07-30T15:01:49.786Z,977
2017-07-30T15:02:57.271Z,977
2017-07-30T15:04:04.103Z,976
2017-07-30T15:05:11.263Z,977
2017-07-30T15:06:18.748Z,977
2017-07-30T15:07:26.385Z,977
2017-07-30T15:08:33.548Z,977
2017-07-30T15:09:41.019Z,977
2017-07-30T15:10:48.530Z,977
2017-07-30T15:11:56.025Z,976
2017-07-30T15:13:03.181Z,976
2017-07-30T15:14:10.677Z,977
2017-07-30T15:15:18.455Z,977
2017-07-30T15:16:25.614Z,976
2017-07-30T15:17:33.104Z,976
2017-07-30T15:18:40.590Z,976
2017-07-30T15:19:47.740Z,975
2017-07-30T15:20:55.528Z,975
2017-07-30T15:22:02.698Z,975
2017-07-30T15:23:10.184Z,975
2017-07-30T15:24:17.676Z,976
2017-07-30T15:25:24.834Z,975
2017-07-30T15:26:32.699Z,975
2017-07-30T15:27:39.853Z,975
2017-07-30T15:28:47.351Z,973
2017-07-30T15:29:54.839Z,971
2017-07-30T15:31:02.348Z,972